Meteorología y climatología de Navarra
Datos de la estación - Meteo Navarra

Estación de Erremendia (Salazar) GN

Altitud 1047 m.


Datos desde el 16/09/2020 hasta el 17/09/2020 en horario solar
Los datos son PROVISIONALES

Anterior Página 1 de 1 Siguiente Descargar: Formato para Excel 2000 o superior   Formato csv   Formato para OpenOffice Calc
Fecha Temperatura Humedad relativa Radiación global Insolación Precipitación Vel. viento 10 m Vel. viento 10 m Dir. viento 10 m
ºC % W/m² s l/m² m/s km/h º
16/09/2020 0:00 9.2 95 0.0 0 0.0 0.2 0.7 49
16/09/2020 0:10 9.3 95 0.0 0 0.0 0.5 1.8 94
16/09/2020 0:20 9.2 95 0.0 0 0.0 0.8 2.9 73
16/09/2020 0:30 9.1 95 0.0 0 0.0 0.4 1.3 68
16/09/2020 0:40 9.2 95 0.0 0 0.0 0.2 0.7 45
16/09/2020 0:50 8.8 95 0.0 0 0.0 0.2 0.7 70
16/09/2020 1:00 8.8 95 0.0 0 0.0 0.5 1.7 70
16/09/2020 1:10 8.4 94 0.0 0 0.0 0.2 0.7 70
16/09/2020 1:20 8.3 95 0.0 0 0.0 0.0 0.1 84
16/09/2020 1:30 8.3 95 0.0 0 0.0 0.1 0.5 77
16/09/2020 1:40 8.3 95 0.0 0 0.0 0.1 0.3 74
16/09/2020 1:50 8.3 95 0.0 0 0.0 0.1 0.2 78
16/09/2020 2:00 8.0 95 0.0 0 0.0 0.1 0.3 75
16/09/2020 2:10 7.8 95 0.0 0 0.0 0.1 0.5 73
16/09/2020 2:20 7.9 96 0.0 0 0.0 0.3 1.2 79
16/09/2020 2:30 8.2 96 0.0 0 0.0 0.6 2.1 67
16/09/2020 2:40 8.2 96 0.0 0 0.0 0.6 2.1 71
16/09/2020 2:50 8.0 96 0.0 0 0.0 0.4 1.3 74
16/09/2020 3:00 8.0 96 0.0 0 0.0 0.6 2.3 63
16/09/2020 3:10 8.1 96 0.0 0 0.0 0.6 2.1 75
16/09/2020 3:20 7.8 96 0.0 0 0.0 0.4 1.5 82
16/09/2020 3:30 7.7 96 0.0 0 0.0 0.8 2.8 78
16/09/2020 3:40 7.8 96 0.0 0 0.0 0.9 3.1 76
16/09/2020 3:50 7.5 96 0.0 0 0.0 0.6 2.1 83
16/09/2020 4:00 7.4 96 0.0 0 0.0 0.6 2.1 73
16/09/2020 4:10 7.3 96 0.0 0 0.0 0.9 3.2 77
16/09/2020 4:20 7.4 96 0.0 0 0.0 0.4 1.4 84
16/09/2020 4:30 7.1 96 0.0 0 0.0 0.6 2.2 75
16/09/2020 4:40 7.0 96 0.0 0 0.0 0.9 3.3 78
16/09/2020 4:50 7.0 96 0.0 0 0.0 0.6 2.1 84
16/09/2020 5:00 7.0 96 0.0 0 0.0 0.7 2.4 72
16/09/2020 5:10 6.9 96 0.0 0 0.0 0.8 2.9 80
16/09/2020 5:20 6.9 96 0.0 0 0.0 0.6 2.1 83
16/09/2020 5:30 6.8 96 0.0 0 0.0 0.6 2.1 72
16/09/2020 5:40 6.9 96 0.0 0 0.0 0.6 2.3 82
16/09/2020 5:50 6.8 96 0.0 0 0.0 0.8 2.9 74
16/09/2020 6:00 6.7 96 1.0 0 0.0 0.7 2.4 79
16/09/2020 6:10 7.0 97 22.4 0 0.0 0.4 1.3 81
16/09/2020 6:20 7.3 96 41.2 326 0.0 0.4 1.3 88
16/09/2020 6:30 8.0 97 73.3 554 0.0 0.6 2.1 71
16/09/2020 6:40 9.7 97 98.8 600 0.0 0.6 2.1 79
16/09/2020 6:50 10.7 97 120.6 600 0.0 0.1 0.2 84
16/09/2020 7:00 11.4 97 146.8 600 0.0 0.0 0.0 0
16/09/2020 7:10 13.0 96 174.3 600 0.0 0.0 0.0 0
16/09/2020 7:20 14.6 94 203.0 600 0.0 0.0 0.0 0
16/09/2020 7:30 16.4 86 172.4 392 0.0 0.0 0.0 0
16/09/2020 7:40 17.6 78 249.7 600 0.0 0.0 0.0 0
16/09/2020 7:50 19.4 70 270.4 600 0.0 0.0 0.0 0
16/09/2020 8:00 20.5 68 295.2 600 0.0 0.0 0.0 84
16/09/2020 8:10 20.6 64 303.5 600 0.0 0.0 0.0 84
16/09/2020 8:20 21.5 59 332.8 600 0.0 0.1 0.5 285
16/09/2020 8:30 22.0 59 380.7 600 0.0 0.3 1.1 299
16/09/2020 8:40 22.6 54 435.4 600 0.0 0.6 2.1 259
16/09/2020 8:50 23.9 48 472.8 600 0.0 0.8 2.9 102
16/09/2020 9:00 24.8 43 511.1 600 0.0 1.1 3.8 86
16/09/2020 9:10 24.7 41 541.4 600 0.0 1.1 4.0 109
16/09/2020 9:20 24.6 41 544.2 600 0.0 1.6 5.8 72
16/09/2020 9:30 24.9 41 571.9 600 0.0 1.8 6.4 72
16/09/2020 9:40 24.9 40 561.1 600 0.0 1.8 6.4 83
16/09/2020 9:50 24.9 40 649.8 600 0.0 1.6 5.9 66
16/09/2020 10:00 25.1 39 607.4 600 0.0 2.3 8.1 56
16/09/2020 10:10 25.0 39 691.7 600 0.0 2.5 8.9 61
16/09/2020 10:20 25.5 38 680.8 592 0.0 1.8 6.6 66
16/09/2020 10:30 25.8 37 612.5 484 0.0 1.1 3.9 160
16/09/2020 10:40 24.9 41 243.9 50 0.0 1.8 6.3 253
16/09/2020 10:50 24.3 43 425.9 232 0.0 1.7 6.3 246
16/09/2020 11:00 25.4 40 726.2 546 0.0 2.6 9.5 230
16/09/2020 11:10 26.2 37 807.0 600 0.0 2.9 10.5 239
16/09/2020 11:20 26.0 37 784.4 600 0.0 2.8 10.0 242
16/09/2020 11:30 26.1 37 798.0 600 0.0 2.8 10.0 226
16/09/2020 11:40 26.5 35 804.0 600 0.0 3.0 10.7 233
16/09/2020 11:50 26.5 35 805.0 600 0.0 2.7 9.6 243
16/09/2020 12:00 26.3 35 807.0 600 0.0 2.4 8.6 208
16/09/2020 12:10 26.3 35 784.1 600 0.0 2.8 10.1 214
16/09/2020 12:20 26.6 34 798.3 600 0.0 3.1 11.0 228
16/09/2020 12:30 26.6 34 809.0 600 0.0 1.9 6.7 201
16/09/2020 12:40 26.1 35 411.2 230 0.0 2.6 9.4 200
16/09/2020 12:50 26.0 36 654.3 498 0.0 2.0 7.3 260
16/09/2020 13:00 27.0 35 737.3 600 0.0 2.4 8.7 314
16/09/2020 13:10 26.9 34 679.9 564 0.0 1.8 6.6 284
16/09/2020 13:20 27.4 33 705.9 596 0.0 2.3 8.2 285
16/09/2020 13:30 27.7 32 711.9 600 0.0 2.1 7.4 269
16/09/2020 13:40 27.4 33 511.0 400 0.0 2.5 9.0 304
16/09/2020 13:50 27.1 33 684.1 600 0.0 2.1 7.7 290
16/09/2020 14:00 27.1 36 475.6 372 0.0 2.2 7.8 342
16/09/2020 14:10 25.4 42 196.7 0 0.0 2.5 9.0 24
16/09/2020 14:20 24.9 44 192.3 0 0.0 2.8 10.2 54
16/09/2020 14:30 24.8 44 163.1 0 0.0 2.3 8.3 56
16/09/2020 14:40 24.6 44 132.1 0 0.0 1.7 6.2 39
16/09/2020 14:50 24.5 44 205.4 88 0.0 1.6 5.8 11
16/09/2020 15:00 25.0 43 327.2 258 0.0 1.7 6.0 34
16/09/2020 15:10 25.0 43 144.6 0 0.0 1.2 4.2 358
16/09/2020 15:20 24.9 43 274.4 168 0.0 1.6 5.8 2
16/09/2020 15:30 24.9 43 205.0 52 0.0 2.8 10.2 20
16/09/2020 15:40 24.9 43 355.1 518 0.0 2.3 8.3 10
16/09/2020 15:50 24.8 42 149.3 44 0.0 2.5 9.1 1
16/09/2020 16:00 24.3 44 132.0 32 0.0 1.9 6.7 359
16/09/2020 16:10 24.4 44 280.6 562 0.0 2.0 7.1 19
16/09/2020 16:20 24.6 44 217.3 600 0.0 2.0 7.3 2
16/09/2020 16:30 24.2 44 172.0 338 0.0 2.2 7.8 6
16/09/2020 16:40 24.0 45 153.0 288 0.0 2.3 8.2 4
16/09/2020 16:50 24.0 45 185.2 600 0.0 1.7 5.9 33
16/09/2020 17:00 24.1 45 172.0 600 0.0 2.2 7.8 40
16/09/2020 17:10 23.9 45 146.5 600 0.0 1.9 6.7 32
16/09/2020 17:20 23.7 46 95.7 570 0.0 1.7 6.1 13
16/09/2020 17:30 23.3 47 64.3 144 0.0 1.4 5.2 30
16/09/2020 17:40 22.9 48 40.0 0 0.0 1.1 3.8 21
16/09/2020 17:50 22.3 50 12.1 0 0.0 1.1 4.0 6
16/09/2020 18:00 21.6 52 0.0 0 0.0 0.8 3.0 26
16/09/2020 18:10 20.0 57 0.0 0 0.0 0.7 2.3 69
16/09/2020 18:20 18.3 64 0.0 0 0.0 0.0 0.1 84
16/09/2020 18:30 16.7 69 0.0 0 0.0 0.3 1.2 69
16/09/2020 18:40 15.8 72 0.0 0 0.0 0.2 0.7 66
16/09/2020 18:50 14.5 76 0.0 0 0.0 0.5 1.9 70
16/09/2020 19:00 13.8 79 0.0 0 0.0 0.5 1.7 62
16/09/2020 19:10 13.7 81 0.0 0 0.0 1.2 4.4 70
16/09/2020 19:20 13.7 80 0.0 0 0.0 0.6 2.2 67
16/09/2020 19:30 13.1 81 0.0 0 0.0 0.4 1.5 72
16/09/2020 19:40 12.8 83 0.0 0 0.0 0.9 3.3 70
16/09/2020 19:50 12.6 84 0.0 0 0.0 0.8 3.0 70
16/09/2020 20:00 12.1 85 0.0 0 0.0 0.6 2.0 66
16/09/2020 20:10 11.8 86 0.0 0 0.0 0.7 2.3 76
16/09/2020 20:20 11.8 87 0.0 0 0.0 1.2 4.4 72
16/09/2020 20:30 11.8 87 0.0 0 0.0 0.5 1.7 76
16/09/2020 20:40 11.2 87 0.0 0 0.0 0.8 2.9 71
16/09/2020 20:50 11.0 88 0.0 0 0.0 0.6 2.0 70
16/09/2020 21:00 11.1 89 0.0 0 0.0 1.2 4.4 67
16/09/2020 21:10 11.0 88 0.0 0 0.0 0.9 3.2 78
16/09/2020 21:20 10.4 88 0.0 0 0.0 0.8 2.8 77
16/09/2020 21:30 10.2 90 0.0 0 0.0 1.1 4.0 80
16/09/2020 21:40 9.9 90 0.0 0 0.0 0.8 2.9 81
16/09/2020 21:50 9.7 91 0.0 0 0.0 0.5 1.6 84
16/09/2020 22:00 9.6 91 0.0 0 0.0 0.3 1.2 74
16/09/2020 22:10 9.4 91 0.0 0 0.0 0.6 2.1 68
16/09/2020 22:20 9.2 91 0.0 0 0.0 0.8 2.8 71
16/09/2020 22:30 9.2 92 0.0 0 0.0 0.6 2.3 78
16/09/2020 22:40 9.0 92 0.0 0 0.0 0.5 1.6 73
16/09/2020 22:50 8.8 93 0.0 0 0.0 0.4 1.3 72
16/09/2020 23:00 8.7 92 0.0 0 0.0 0.7 2.4 74
16/09/2020 23:10 8.8 93 0.0 0 0.0 0.6 2.2 76
16/09/2020 23:20 8.6 93 0.0 0 0.0 0.7 2.4 71
16/09/2020 23:30 8.3 92 0.0 0 0.0 0.7 2.3 72
16/09/2020 23:40 8.2 93 0.0 0 0.0 0.6 2.1 70
16/09/2020 23:50 8.2 94 0.0 0 0.0 1.2 4.3 67
Anterior Página 1 de 1 Siguiente

NOTA: Tipo de datos según el color:
   - Valores diarios o 10 minutos correctos
   - Valores diarios calculados a partir de un número de datos 10 minutos menor que 144 y mayor que 120, o de un número de datos semihorarios menor que 48 y mayor que 40 (caso de las estaciones de INTIA y del Ministerio)
   - Valores diez minutos estimados


Contacto        Enlaces        Aviso legal